createdAt,value
2017-12-20T00:01:26.518Z,11.80
2017-12-20T00:03:53.892Z,13.00
2017-12-20T00:06:21.153Z,15.03
2017-12-20T00:08:48.445Z,11.00
2017-12-20T00:11:15.731Z,11.90
2017-12-20T00:13:43.033Z,11.67
2017-12-20T00:16:10.289Z,12.50
2017-12-20T00:18:37.574Z,12.17
2017-12-20T00:21:04.833Z,13.20
2017-12-20T00:23:32.208Z,9.63
2017-12-20T00:25:59.471Z,9.30
2017-12-20T00:28:26.726Z,12.87
2017-12-20T00:30:54.001Z,9.60
2017-12-20T00:33:21.060Z,8.67
2017-12-20T00:35:48.134Z,8.70
2017-12-20T00:38:15.216Z,7.30
2017-12-20T00:40:42.267Z,7.83
2017-12-20T00:43:09.512Z,7.70
2017-12-20T00:45:36.784Z,7.67
2017-12-20T00:48:04.057Z,9.13
2017-12-20T00:50:31.309Z,8.17
2017-12-20T00:52:58.592Z,8.23
2017-12-20T00:55:25.848Z,8.57
2017-12-20T00:57:53.124Z,7.50
2017-12-20T01:00:20.401Z,8.27
2017-12-20T01:02:47.682Z,7.43
2017-12-20T01:05:15.004Z,7.90
2017-12-20T01:07:42.292Z,9.13
2017-12-20T01:10:09.559Z,7.90
2017-12-20T01:12:36.812Z,6.80
2017-12-20T01:15:04.122Z,7.00
2017-12-20T01:17:31.364Z,7.00
2017-12-20T01:19:58.642Z,7.70
2017-12-20T01:22:25.889Z,7.27
2017-12-20T01:24:53.257Z,7.63
2017-12-20T01:27:20.589Z,6.13
2017-12-20T01:29:47.849Z,8.83
2017-12-20T01:32:15.200Z,6.23
2017-12-20T01:34:42.449Z,7.13
2017-12-20T01:37:09.720Z,6.30
2017-12-20T01:39:36.979Z,7.43
2017-12-20T01:42:04.308Z,6.67
2017-12-20T01:44:31.562Z,5.37
2017-12-20T01:46:58.829Z,6.03
2017-12-20T01:49:26.173Z,5.70
2017-12-20T01:51:53.421Z,6.13
2017-12-20T01:54:20.692Z,5.10
2017-12-20T01:56:48.037Z,5.43
2017-12-20T01:59:15.289Z,6.53
2017-12-20T02:01:42.561Z,5.57
2017-12-20T02:04:09.813Z,4.60
2017-12-20T02:06:37.092Z,4.70
2017-12-20T02:09:04.365Z,5.00
2017-12-20T02:11:31.635Z,5.00
2017-12-20T02:13:58.884Z,4.97
2017-12-20T02:16:26.159Z,7.20
2017-12-20T02:18:53.459Z,4.70
2017-12-20T02:21:20.776Z,5.07
2017-12-20T02:23:48.025Z,4.30
2017-12-20T02:26:15.293Z,4.47
2017-12-20T02:28:42.541Z,3.87
2017-12-20T02:31:09.827Z,5.27
2017-12-20T02:33:37.069Z,4.20
2017-12-20T02:36:04.317Z,3.43
2017-12-20T02:38:36.368Z,3.50
2017-12-20T02:41:04.356Z,3.57
2017-12-20T02:43:31.685Z,4.00
2017-12-20T02:45:58.943Z,5.40
2017-12-20T02:48:26.188Z,4.20
2017-12-20T02:50:53.454Z,3.23
2017-12-20T02:53:20.707Z,3.20
2017-12-20T02:55:47.976Z,2.80
2017-12-20T02:58:15.281Z,2.83
2017-12-20T03:00:42.603Z,3.30
2017-12-20T03:03:09.811Z,3.63
2017-12-20T03:05:37.080Z,4.30
2017-12-20T03:08:04.325Z,3.70
2017-12-20T03:10:31.605Z,3.90
2017-12-20T03:12:59.285Z,4.13
2017-12-20T03:15:26.597Z,5.17
2017-12-20T03:17:53.840Z,5.97
2017-12-20T03:20:21.111Z,4.80
2017-12-20T03:22:48.433Z,4.80
2017-12-20T03:25:15.704Z,4.97
2017-12-20T03:27:42.961Z,4.87
2017-12-20T03:30:10.222Z,4.60
2017-12-20T03:32:37.470Z,4.50
2017-12-20T03:35:04.757Z,4.73
2017-12-20T03:37:32.003Z,4.83
2017-12-20T03:39:59.340Z,4.80
2017-12-20T03:42:26.685Z,4.47
2017-12-20T03:44:53.929Z,4.10
2017-12-20T03:47:21.184Z,4.53
2017-12-20T03:49:48.449Z,4.43
2017-12-20T03:52:15.734Z,4.47
2017-12-20T03:54:42.980Z,4.60
2017-12-20T03:57:10.229Z,6.30
2017-12-20T03:59:37.505Z,7.07
2017-12-20T04:02:04.776Z,5.47
2017-12-20T04:04:32.028Z,4.83
2017-12-20T04:06:59.309Z,5.40
2017-12-20T04:09:26.563Z,4.70
2017-12-20T04:11:53.805Z,4.67
2017-12-20T04:14:21.072Z,3.80
2017-12-20T04:16:48.349Z,3.80
2017-12-20T04:19:15.623Z,3.40
2017-12-20T04:21:42.900Z,3.90
2017-12-20T04:24:10.154Z,3.00
2017-12-20T04:26:37.400Z,3.00
2017-12-20T04:29:04.704Z,3.47
2017-12-20T04:31:31.991Z,2.93
2017-12-20T04:33:59.235Z,2.83
2017-12-20T04:36:26.484Z,3.43
2017-12-20T04:38:53.753Z,2.83
2017-12-20T04:41:21.076Z,2.87
2017-12-20T04:43:48.357Z,4.10
2017-12-20T04:46:15.615Z,2.60
2017-12-20T04:48:42.851Z,2.97
2017-12-20T04:51:10.116Z,3.50
2017-12-20T04:53:37.396Z,2.50
2017-12-20T04:56:04.692Z,2.80
2017-12-20T04:58:31.968Z,3.20
2017-12-20T05:00:59.308Z,2.57
2017-12-20T05:03:26.563Z,3.00
2017-12-20T05:05:53.913Z,2.27
2017-12-20T05:08:21.165Z,2.77
2017-12-20T05:10:48.525Z,2.90
2017-12-20T05:13:15.772Z,2.47
2017-12-20T05:15:43.025Z,3.07
2017-12-20T05:18:10.309Z,2.70
2017-12-20T05:20:37.586Z,2.90
2017-12-20T05:23:04.850Z,2.53
2017-12-20T05:25:32.097Z,2.33
2017-12-20T05:27:59.369Z,2.97
2017-12-20T05:30:26.659Z,2.97
2017-12-20T05:32:53.925Z,3.53
2017-12-20T05:35:21.177Z,2.93
2017-12-20T05:37:48.446Z,3.60
2017-12-20T05:40:15.722Z,2.77
2017-12-20T05:42:43.017Z,2.67
2017-12-20T05:45:10.289Z,2.70
2017-12-20T05:47:37.563Z,2.93
2017-12-20T05:50:04.832Z,3.20
2017-12-20T05:52:32.113Z,4.20
2017-12-20T05:54:59.464Z,2.90
2017-12-20T05:57:26.716Z,2.80
2017-12-20T05:59:53.995Z,3.00
2017-12-20T06:02:21.238Z,3.23
2017-12-20T06:04:48.611Z,2.57
2017-12-20T06:07:15.860Z,3.60
2017-12-20T06:09:43.277Z,3.57
2017-12-20T06:12:10.533Z,3.97
2017-12-20T06:14:37.808Z,2.73
2017-12-20T06:17:05.080Z,4.40
2017-12-20T06:19:32.818Z,2.63
2017-12-20T06:22:00.064Z,3.20
2017-12-20T06:24:27.354Z,2.63
2017-12-20T06:26:54.621Z,2.70
2017-12-20T06:29:22.044Z,2.40
2017-12-20T06:31:49.325Z,2.30
2017-12-20T06:34:16.679Z,2.33
2017-12-20T06:36:43.941Z,2.40
2017-12-20T06:39:11.224Z,2.30
2017-12-20T06:41:38.474Z,2.00
2017-12-20T06:44:05.789Z,2.40
2017-12-20T06:46:33.056Z,2.90
2017-12-20T06:49:00.336Z,2.43
2017-12-20T06:51:27.652Z,1.90
2017-12-20T06:53:54.944Z,2.20
2017-12-20T06:56:22.201Z,1.90
2017-12-20T06:58:49.441Z,2.00
2017-12-20T07:01:16.768Z,1.77
2017-12-20T07:03:44.017Z,2.10
2017-12-20T07:06:11.300Z,1.67
2017-12-20T07:08:38.548Z,1.53
2017-12-20T07:11:05.798Z,2.10
2017-12-20T07:13:33.077Z,1.37
2017-12-20T07:16:00.324Z,1.77
2017-12-20T07:18:27.618Z,1.83
2017-12-20T07:20:54.907Z,1.80
2017-12-20T07:23:22.150Z,3.10
2017-12-20T07:25:49.445Z,2.07
2017-12-20T07:28:16.696Z,2.10
2017-12-20T07:30:43.945Z,1.80
2017-12-20T07:33:11.213Z,2.60
2017-12-20T07:35:38.529Z,2.70
2017-12-20T07:38:05.801Z,2.10
2017-12-20T07:40:33.130Z,2.30
2017-12-20T07:43:00.405Z,1.97
2017-12-20T07:45:27.779Z,2.20
2017-12-20T07:47:55.021Z,1.77
2017-12-20T07:50:22.304Z,2.47
2017-12-20T07:52:49.561Z,2.83
2017-12-20T07:55:16.816Z,3.20
2017-12-20T07:57:44.085Z,2.30
2017-12-20T08:00:11.340Z,2.10
2017-12-20T08:02:38.715Z,4.53
2017-12-20T08:05:06.068Z,4.07
2017-12-20T08:07:33.362Z,2.80
2017-12-20T08:10:00.613Z,3.53
2017-12-20T08:12:27.865Z,2.60
2017-12-20T08:14:55.141Z,3.67
2017-12-20T08:17:22.389Z,2.03
2017-12-20T08:19:49.665Z,3.30
2017-12-20T08:22:16.912Z,2.90
2017-12-20T08:24:44.185Z,2.40
2017-12-20T08:27:11.442Z,2.60
2017-12-20T08:29:38.714Z,2.70
2017-12-20T08:32:05.961Z,2.60
2017-12-20T08:34:33.325Z,2.13
2017-12-20T08:37:00.668Z,2.40
2017-12-20T08:39:27.940Z,3.07
2017-12-20T08:41:55.289Z,3.00
2017-12-20T08:44:22.556Z,3.20
2017-12-20T08:46:49.846Z,2.70
2017-12-20T08:49:17.097Z,3.90
2017-12-20T08:51:44.347Z,3.40
2017-12-20T08:54:11.620Z,2.70
2017-12-20T08:56:38.904Z,3.53
2017-12-20T08:59:06.256Z,4.27
2017-12-20T09:01:33.510Z,2.40
2017-12-20T09:04:00.790Z,3.63
2017-12-20T09:06:28.061Z,2.43
2017-12-20T09:08:55.306Z,2.67
2017-12-20T09:11:22.783Z,2.50
2017-12-20T09:13:50.024Z,3.23
2017-12-20T09:16:17.313Z,2.70
2017-12-20T09:18:44.565Z,2.90
2017-12-20T09:21:11.817Z,2.20
2017-12-20T09:23:39.089Z,2.30
2017-12-20T09:26:06.369Z,2.77
2017-12-20T09:28:33.709Z,2.20
2017-12-20T09:31:01.061Z,3.20
2017-12-20T09:33:28.326Z,2.27
2017-12-20T09:35:55.597Z,2.60
2017-12-20T09:38:22.885Z,1.93
2017-12-20T09:40:50.135Z,2.40
2017-12-20T09:43:17.389Z,2.20
2017-12-20T09:45:44.665Z,2.20
2017-12-20T09:48:11.919Z,1.80
2017-12-20T09:50:39.299Z,2.00
2017-12-20T09:53:06.541Z,1.60
2017-12-20T09:55:33.793Z,3.13
2017-12-20T09:58:01.086Z,3.77
2017-12-20T10:00:28.336Z,3.77
2017-12-20T10:02:55.669Z,3.37
2017-12-20T10:05:23.021Z,2.83
2017-12-20T10:07:50.271Z,2.97
2017-12-20T10:10:17.539Z,2.70
2017-12-20T10:12:44.798Z,2.73
2017-12-20T10:15:12.077Z,3.50
2017-12-20T10:17:39.389Z,2.97
2017-12-20T10:20:06.633Z,2.60
2017-12-20T10:22:33.908Z,2.60
2017-12-20T10:25:01.192Z,2.67
2017-12-20T10:27:28.485Z,3.63
2017-12-20T10:29:55.760Z,2.77
2017-12-20T10:32:23.021Z,2.60
2017-12-20T10:34:50.291Z,2.50
2017-12-20T10:37:17.544Z,2.20
2017-12-20T10:39:44.805Z,1.50
2017-12-20T10:42:12.057Z,1.83
2017-12-20T10:44:39.342Z,2.33
2017-12-20T10:47:06.593Z,1.80
2017-12-20T10:49:33.845Z,3.10
2017-12-20T10:52:01.157Z,2.77
2017-12-20T10:54:28.361Z,2.33
2017-12-20T10:56:55.653Z,2.70
2017-12-20T10:59:22.925Z,3.07
2017-12-20T11:01:50.178Z,2.50
2017-12-20T11:04:17.511Z,3.10
2017-12-20T11:06:44.761Z,2.90
2017-12-20T11:09:12.013Z,3.17
2017-12-20T11:11:39.286Z,3.70
2017-12-20T11:14:06.548Z,3.10
2017-12-20T11:16:33.889Z,2.40
2017-12-20T11:19:01.139Z,2.30
2017-12-20T11:21:28.415Z,2.57
2017-12-20T11:23:55.744Z,3.63
2017-12-20T11:26:23.091Z,2.47
2017-12-20T11:28:50.486Z,2.27
2017-12-20T11:31:17.742Z,2.67
2017-12-20T11:33:44.988Z,2.90
2017-12-20T11:36:12.261Z,2.17
2017-12-20T11:38:39.511Z,2.50
2017-12-20T11:41:06.793Z,3.03
2017-12-20T11:43:34.071Z,2.60
2017-12-20T11:46:01.312Z,2.40
2017-12-20T11:48:28.591Z,2.90
2017-12-20T11:50:55.836Z,2.90
2017-12-20T11:53:23.124Z,2.17
2017-12-20T11:55:50.372Z,2.10
2017-12-20T11:58:17.624Z,2.20
2017-12-20T12:00:44.921Z,2.30
2017-12-20T12:03:12.145Z,2.43
2017-12-20T12:05:39.457Z,2.03
2017-12-20T12:08:06.814Z,2.27
2017-12-20T12:10:34.065Z,2.27
2017-12-20T12:13:01.340Z,3.00
2017-12-20T12:15:28.592Z,2.50
2017-12-20T12:17:55.876Z,2.70
2017-12-20T12:20:23.126Z,1.87
2017-12-20T12:22:50.401Z,2.37
2017-12-20T12:25:17.645Z,2.43
2017-12-20T12:27:44.934Z,3.60
2017-12-20T12:30:12.200Z,2.30
2017-12-20T12:32:39.456Z,3.00
2017-12-20T12:35:06.732Z,3.27
2017-12-20T12:37:34.016Z,2.90
2017-12-20T12:40:01.304Z,3.00
2017-12-20T12:42:28.585Z,3.60
2017-12-20T12:44:55.827Z,3.70
2017-12-20T12:49:56.898Z,5.00
2017-12-20T12:52:24.147Z,4.70
2017-12-20T12:54:51.419Z,4.83
2017-12-20T12:57:18.740Z,4.23
2017-12-20T12:59:46.110Z,4.80
2017-12-20T13:02:13.349Z,5.27
2017-12-20T13:04:40.633Z,4.40
2017-12-20T13:07:07.954Z,5.17
2017-12-20T13:09:35.224Z,5.13
2017-12-20T13:12:02.505Z,5.60
2017-12-20T13:14:29.757Z,4.73
2017-12-20T13:16:57.056Z,4.93
2017-12-20T13:19:24.325Z,6.30
2017-12-20T13:21:51.569Z,5.73
2017-12-20T13:24:18.847Z,4.70
2017-12-20T13:26:46.117Z,6.60
2017-12-20T13:29:13.364Z,5.70
2017-12-20T13:31:40.641Z,4.83
2017-12-20T13:34:07.897Z,4.90
2017-12-20T13:36:36.027Z,5.50
2017-12-20T13:39:03.278Z,5.60
2017-12-20T13:41:30.537Z,5.20
2017-12-20T13:43:57.813Z,5.80
2017-12-20T13:46:25.060Z,4.43
2017-12-20T13:48:52.339Z,4.93
2017-12-20T13:51:19.585Z,4.23
2017-12-20T13:53:46.861Z,6.20
2017-12-20T13:56:14.120Z,5.53
2017-12-20T13:58:41.398Z,6.10
2017-12-20T14:01:08.685Z,5.97
2017-12-20T14:03:35.981Z,6.67
2017-12-20T14:06:03.242Z,5.53
2017-12-20T14:08:30.497Z,7.23
2017-12-20T14:10:57.776Z,7.40
2017-12-20T14:13:25.127Z,6.77
2017-12-20T14:15:52.404Z,7.50
2017-12-20T14:18:19.747Z,7.47
2017-12-20T14:20:47.029Z,5.60
2017-12-20T14:23:14.278Z,6.30
2017-12-20T14:25:41.537Z,7.67
2017-12-20T14:28:08.852Z,5.97
2017-12-20T14:30:36.106Z,5.60
2017-12-20T14:33:03.381Z,5.87
2017-12-20T14:35:30.636Z,7.03
2017-12-20T14:37:57.925Z,5.67
2017-12-20T14:40:25.173Z,5.10
2017-12-20T14:42:52.424Z,6.30
2017-12-20T14:45:19.709Z,7.50
2017-12-20T14:47:46.960Z,5.70
2017-12-20T14:50:14.237Z,6.73
2017-12-20T14:52:41.590Z,7.00
2017-12-20T14:55:08.861Z,6.60
2017-12-20T14:57:36.199Z,5.53
2017-12-20T15:00:03.449Z,5.53
2017-12-20T15:02:30.700Z,6.37
2017-12-20T15:04:57.974Z,6.23
2017-12-20T15:07:25.257Z,5.73
2017-12-20T15:09:52.505Z,6.50
2017-12-20T15:12:19.831Z,6.63
2017-12-20T15:14:47.155Z,8.60
2017-12-20T15:17:14.391Z,6.97
2017-12-20T15:19:41.678Z,7.83
2017-12-20T15:22:09.044Z,7.40
2017-12-20T15:24:36.310Z,6.13
2017-12-20T15:27:03.544Z,5.60
2017-12-20T15:29:30.926Z,5.70
2017-12-20T15:31:58.177Z,10.60
2017-12-20T15:34:25.439Z,6.63
2017-12-20T15:36:52.709Z,8.63
2017-12-20T15:39:19.968Z,6.93
2017-12-20T15:41:47.251Z,5.73
2017-12-20T15:44:14.496Z,5.67
2017-12-20T15:46:41.780Z,6.03
2017-12-20T15:49:09.038Z,5.20
2017-12-20T15:51:36.288Z,5.00
2017-12-20T15:54:03.645Z,5.40
2017-12-20T15:56:30.889Z,5.50
2017-12-20T15:58:58.172Z,5.13
2017-12-20T16:01:25.449Z,5.60
2017-12-20T16:03:52.692Z,5.73
2017-12-20T16:06:19.973Z,4.40
2017-12-20T16:08:47.220Z,4.90
2017-12-20T16:11:14.501Z,3.73
2017-12-20T16:13:41.749Z,3.93
2017-12-20T16:16:09.022Z,4.57
2017-12-20T16:18:36.300Z,3.90
2017-12-20T16:21:03.557Z,3.67
2017-12-20T16:23:30.841Z,4.23
2017-12-20T16:25:58.093Z,4.23
2017-12-20T16:28:25.372Z,6.10
2017-12-20T16:30:52.647Z,3.60
2017-12-20T16:33:19.924Z,3.40
2017-12-20T16:35:47.171Z,3.13
2017-12-20T16:38:14.426Z,4.80
2017-12-20T16:40:41.703Z,3.80
2017-12-20T16:43:08.956Z,5.27
2017-12-20T16:45:36.374Z,4.77
2017-12-20T16:48:03.628Z,5.63
2017-12-20T16:50:30.882Z,6.60
2017-12-20T16:52:58.281Z,6.40
2017-12-20T16:55:25.541Z,5.23
2017-12-20T16:57:52.853Z,4.50
2017-12-20T17:00:20.099Z,4.10
2017-12-20T17:02:47.372Z,4.63
2017-12-20T17:05:14.618Z,4.80
2017-12-20T17:07:41.903Z,5.43
2017-12-20T17:10:09.180Z,5.90
2017-12-20T17:12:36.426Z,4.20
2017-12-20T17:15:03.723Z,3.80
2017-12-20T17:17:30.977Z,4.40
2017-12-20T17:19:58.252Z,6.60
2017-12-20T17:22:25.520Z,5.07
2017-12-20T17:24:52.845Z,4.40
2017-12-20T17:27:20.092Z,4.73
2017-12-20T17:29:47.362Z,5.23
2017-12-20T17:32:14.620Z,4.37
2017-12-20T17:34:41.899Z,4.70
2017-12-20T17:37:09.153Z,4.20
2017-12-20T17:39:36.410Z,5.33
2017-12-20T17:42:03.701Z,7.67
2017-12-20T17:44:30.973Z,6.20
2017-12-20T17:46:58.221Z,5.57
2017-12-20T17:49:25.505Z,4.37
2017-12-20T17:51:52.781Z,4.47
2017-12-20T17:54:20.033Z,4.03
2017-12-20T17:56:47.312Z,4.60
2017-12-20T17:59:14.571Z,4.10
2017-12-20T18:01:41.850Z,6.07
2017-12-20T18:04:09.129Z,4.53
2017-12-20T18:06:36.382Z,5.77
2017-12-20T18:09:03.662Z,7.07
2017-12-20T18:11:30.913Z,4.37
2017-12-20T18:13:58.189Z,5.00
2017-12-20T18:16:25.568Z,6.43
2017-12-20T18:18:52.813Z,6.37
2017-12-20T18:21:20.077Z,7.07
2017-12-20T18:23:47.349Z,6.50
2017-12-20T18:26:14.680Z,5.67
2017-12-20T18:28:41.941Z,8.47
2017-12-20T18:31:09.245Z,6.20
2017-12-20T18:33:36.527Z,8.40
2017-12-20T18:36:03.787Z,5.30
2017-12-20T18:38:31.040Z,8.87
2017-12-20T18:40:58.294Z,5.83
2017-12-20T18:43:25.578Z,8.00
2017-12-20T18:45:52.837Z,8.73
2017-12-20T18:48:20.086Z,5.23
2017-12-20T18:50:47.412Z,9.47
2017-12-20T18:53:14.670Z,8.17
2017-12-20T18:55:41.920Z,6.60
2017-12-20T18:58:09.200Z,6.80
2017-12-20T19:00:36.533Z,4.87
2017-12-20T19:03:03.805Z,4.30
2017-12-20T19:05:31.436Z,4.37
2017-12-20T19:07:58.709Z,5.50
2017-12-20T19:10:25.964Z,6.87
2017-12-20T19:12:53.234Z,6.43
2017-12-20T19:15:20.572Z,5.87
2017-12-20T19:17:47.827Z,7.50
2017-12-20T19:20:15.091Z,9.23
2017-12-20T19:22:42.434Z,7.80
2017-12-20T19:25:09.720Z,8.20
2017-12-20T19:27:36.972Z,5.13
2017-12-20T19:30:04.248Z,4.30
2017-12-20T19:32:31.499Z,4.47
2017-12-20T19:34:58.778Z,4.67
2017-12-20T19:37:26.021Z,4.37
2017-12-20T19:39:53.272Z,7.87
2017-12-20T19:42:20.563Z,4.00
2017-12-20T19:44:47.814Z,4.47
2017-12-20T19:47:15.057Z,5.80
2017-12-20T19:49:42.337Z,5.90
2017-12-20T19:52:09.673Z,5.50
2017-12-20T19:54:37.034Z,7.27
2017-12-20T19:57:04.285Z,4.53
2017-12-20T19:59:31.612Z,5.93
2017-12-20T20:01:58.852Z,4.03
2017-12-20T20:04:26.129Z,5.13
2017-12-20T20:06:53.382Z,3.80
2017-12-20T20:09:20.653Z,3.80
2017-12-20T20:11:47.927Z,4.23
2017-12-20T20:14:15.175Z,4.23
2017-12-20T20:16:42.460Z,7.50
2017-12-20T20:19:09.717Z,5.50
2017-12-20T20:21:36.973Z,3.80
2017-12-20T20:24:04.249Z,3.57
2017-12-20T20:26:31.520Z,3.10
2017-12-20T20:28:58.779Z,3.50
2017-12-20T20:31:26.045Z,4.77
2017-12-20T20:33:53.296Z,6.60
2017-12-20T20:36:20.570Z,5.10
2017-12-20T20:38:47.820Z,4.50
2017-12-20T20:41:15.101Z,5.63
2017-12-20T20:43:42.353Z,3.20
2017-12-20T20:46:09.632Z,4.63
2017-12-20T20:48:36.876Z,6.47
2017-12-20T20:51:04.271Z,3.00
2017-12-20T20:53:31.521Z,4.20
2017-12-20T20:55:58.771Z,3.60
2017-12-20T20:58:26.045Z,3.70
2017-12-20T21:00:53.346Z,5.43
2017-12-20T21:03:20.552Z,4.40
2017-12-20T21:05:47.846Z,5.27
2017-12-20T21:08:15.101Z,3.70
2017-12-20T21:10:42.348Z,5.43
2017-12-20T21:13:09.620Z,4.20
2017-12-20T21:15:36.904Z,2.90
2017-12-20T21:18:04.177Z,3.00
2017-12-20T21:20:31.448Z,4.00
2017-12-20T21:22:59.598Z,7.33
2017-12-20T21:25:26.884Z,6.23
2017-12-20T21:27:54.189Z,6.37
2017-12-20T21:30:21.444Z,3.43
2017-12-20T21:32:48.797Z,5.73
2017-12-20T21:35:16.045Z,3.20
2017-12-20T21:37:43.308Z,3.50
2017-12-20T21:40:10.661Z,5.10
2017-12-20T21:42:37.933Z,3.07
2017-12-20T21:45:05.635Z,4.67
2017-12-20T21:47:32.904Z,5.90
2017-12-20T21:50:00.720Z,2.73
2017-12-20T21:52:28.077Z,2.57
2017-12-20T21:54:55.447Z,4.20
2017-12-20T21:57:22.793Z,5.13
2017-12-20T21:59:51.183Z,3.33
2017-12-20T22:02:18.511Z,2.97
2017-12-20T22:04:45.852Z,3.40
2017-12-20T22:07:13.123Z,3.00
2017-12-20T22:09:40.452Z,3.30
2017-12-20T22:12:07.744Z,3.07
2017-12-20T22:14:35.443Z,2.80
2017-12-20T22:17:02.744Z,3.80
2017-12-20T22:19:30.001Z,3.80
2017-12-20T22:21:57.250Z,3.10
2017-12-20T22:24:24.517Z,3.33
2017-12-20T22:26:51.769Z,3.87
2017-12-20T22:29:19.038Z,2.80
2017-12-20T22:31:46.306Z,4.80
2017-12-20T22:34:13.557Z,3.80
2017-12-20T22:36:40.872Z,4.00
2017-12-20T22:39:08.141Z,3.40
2017-12-20T22:41:35.461Z,2.97
2017-12-20T22:44:02.848Z,3.57
2017-12-20T22:46:30.093Z,4.73
2017-12-20T22:48:57.440Z,5.50
2017-12-20T22:51:24.692Z,5.73
2017-12-20T22:53:51.975Z,3.43
2017-12-20T22:56:19.228Z,5.93
2017-12-20T22:58:46.528Z,3.63
2017-12-20T23:01:13.801Z,4.43
2017-12-20T23:03:41.044Z,4.20
2017-12-20T23:06:08.313Z,5.30
2017-12-20T23:08:35.565Z,3.37
2017-12-20T23:11:02.836Z,3.50
2017-12-20T23:13:30.086Z,3.90
2017-12-20T23:15:57.351Z,3.43
2017-12-20T23:18:24.604Z,4.40
2017-12-20T23:20:51.940Z,4.37
2017-12-20T23:23:19.188Z,4.20
2017-12-20T23:25:46.453Z,7.20
2017-12-20T23:28:13.713Z,4.27
2017-12-20T23:30:40.978Z,4.07
2017-12-20T23:33:08.231Z,2.83
2017-12-20T23:35:35.564Z,6.10
2017-12-20T23:38:02.813Z,3.73
2017-12-20T23:40:30.102Z,4.33
2017-12-20T23:42:57.356Z,3.03
2017-12-20T23:45:24.605Z,3.60
2017-12-20T23:47:51.932Z,3.17
2017-12-20T23:50:19.184Z,4.00
2017-12-20T23:52:46.462Z,3.70
2017-12-20T23:55:13.707Z,3.70
2017-12-20T23:57:40.980Z,3.10
